sensor_id;sensor_type;location;lat;lon;timestamp;pressure;altitude;pressure_sealevel;temperature;humidity
47670;BME280;33408;52.062;11.722;2024-03-08T00:01:15;101875.44;;;1.06;100.00
47670;BME280;33408;52.062;11.722;2024-03-08T00:03:42;101884.56;;;1.01;100.00
47670;BME280;33408;52.062;11.722;2024-03-08T00:06:08;101888.28;;;1.08;100.00
47670;BME280;33408;52.062;11.722;2024-03-08T00:08:35;101882.44;;;1.12;100.00
47670;BME280;33408;52.062;11.722;2024-03-08T00:11:02;101882.41;;;1.11;100.00
47670;BME280;33408;52.062;11.722;2024-03-08T00:13:30;101876.91;;;1.01;100.00
47670;BME280;33408;52.062;11.722;2024-03-08T00:15:56;101879.19;;;0.94;100.00
47670;BME280;33408;52.062;11.722;2024-03-08T00:18:23;101875.88;;;0.96;100.00
47670;BME280;33408;52.062;11.722;2024-03-08T00:20:50;101873.38;;;0.98;100.00
47670;BME280;33408;52.062;11.722;2024-03-08T00:23:17;101877.63;;;0.97;100.00
47670;BME280;33408;52.062;11.722;2024-03-08T00:25:43;101872.47;;;0.96;100.00
47670;BME280;33408;52.062;11.722;2024-03-08T00:28:10;101867.84;;;0.87;100.00
47670;BME280;33408;52.062;11.722;2024-03-08T00:30:40;101867.63;;;0.81;100.00
47670;BME280;33408;52.062;11.722;2024-03-08T00:33:08;101874.81;;;0.91;100.00
47670;BME280;33408;52.062;11.722;2024-03-08T00:35:34;101872.41;;;0.94;100.00
47670;BME280;33408;52.062;11.722;2024-03-08T00:38:01;101866.38;;;0.92;100.00
47670;BME280;33408;52.062;11.722;2024-03-08T00:40:27;101868.75;;;0.87;100.00
47670;BME280;33408;52.062;11.722;2024-03-08T00:42:54;101872.59;;;0.99;100.00
47670;BME280;33408;52.062;11.722;2024-03-08T00:45:21;101860.91;;;1.05;100.00
47670;BME280;33408;52.062;11.722;2024-03-08T00:47:50;101864.84;;;0.97;100.00
47670;BME280;33408;52.062;11.722;2024-03-08T00:50:16;101858.97;;;1.00;100.00
47670;BME280;33408;52.062;11.722;2024-03-08T00:52:43;101856.97;;;0.91;100.00
47670;BME280;33408;52.062;11.722;2024-03-08T00:55:10;101855.31;;;0.93;100.00
47670;BME280;33408;52.062;11.722;2024-03-08T00:57:36;101856.47;;;0.79;100.00
47670;BME280;33408;52.062;11.722;2024-03-08T01:00:05;101844.16;;;0.68;100.00
47670;BME280;33408;52.062;11.722;2024-03-08T01:02:33;101849.25;;;0.68;100.00
47670;BME280;33408;52.062;11.722;2024-03-08T01:05:02;101852.88;;;0.73;100.00
47670;BME280;33408;52.062;11.722;2024-03-08T01:07:29;101844.78;;;0.84;100.00
47670;BME280;33408;52.062;11.722;2024-03-08T01:09:56;101842.91;;;0.80;100.00
47670;BME280;33408;52.062;11.722;2024-03-08T01:12:22;101847.88;;;0.77;100.00
47670;BME280;33408;52.062;11.722;2024-03-08T01:14:49;101837.06;;;0.82;100.00
47670;BME280;33408;52.062;11.722;2024-03-08T01:17:15;101836.75;;;0.75;100.00
47670;BME280;33408;52.062;11.722;2024-03-08T01:19:42;101831.53;;;0.71;100.00
47670;BME280;33408;52.062;11.722;2024-03-08T01:22:11;101831.53;;;0.71;100.00
47670;BME280;33408;52.062;11.722;2024-03-08T01:24:38;101838.81;;;0.62;100.00
47670;BME280;33408;52.062;11.722;2024-03-08T01:27:04;101832.13;;;0.66;100.00
47670;BME280;33408;52.062;11.722;2024-03-08T01:29:31;101821.88;;;0.64;100.00
47670;BME280;33408;52.062;11.722;2024-03-08T01:31:57;101818.97;;;0.55;100.00
47670;BME280;33408;52.062;11.722;2024-03-08T01:34:26;101807.13;;;0.57;100.00
47670;BME280;33408;52.062;11.722;2024-03-08T01:36:54;101818.97;;;0.55;100.00
47670;BME280;33408;52.062;11.722;2024-03-08T01:39:22;101814.53;;;0.51;100.00
47670;BME280;33408;52.062;11.722;2024-03-08T01:41:49;101810.38;;;0.53;100.00
47670;BME280;33408;52.062;11.722;2024-03-08T01:44:15;101804.16;;;0.46;100.00
47670;BME280;33408;52.062;11.722;2024-03-08T01:46:43;101801.22;;;0.58;100.00
47670;BME280;33408;52.062;11.722;2024-03-08T01:49:11;101805.13;;;0.50;100.00
47670;BME280;33408;52.062;11.722;2024-03-08T01:51:38;101800.59;;;0.43;100.00
47670;BME280;33408;52.062;11.722;2024-03-08T01:54:06;101791.84;;;0.36;100.00
47670;BME280;33408;52.062;11.722;2024-03-08T01:56:38;101787.22;;;0.27;100.00
47670;BME280;33408;52.062;11.722;2024-03-08T01:59:05;101790.72;;;0.29;100.00
47670;BME280;33408;52.062;11.722;2024-03-08T02:01:33;101792.22;;;0.24;100.00
47670;BME280;33408;52.062;11.722;2024-03-08T02:04:00;101788.13;;;0.28;100.00
47670;BME280;33408;52.062;11.722;2024-03-08T02:06:27;101789.09;;;0.31;100.00
47670;BME280;33408;52.062;11.722;2024-03-08T02:08:53;101784.59;;;0.26;100.00
47670;BME280;33408;52.062;11.722;2024-03-08T02:11:20;101780.22;;;0.22;100.00
47670;BME280;33408;52.062;11.722;2024-03-08T02:13:48;101788.31;;;0.32;100.00
47670;BME280;33408;52.062;11.722;2024-03-08T02:16:21;101779.03;;;0.34;100.00
47670;BME280;33408;52.062;11.722;2024-03-08T02:18:47;101777.91;;;0.28;100.00
47670;BME280;33408;52.062;11.722;2024-03-08T02:21:16;101777.66;;;0.22;100.00
47670;BME280;33408;52.062;11.722;2024-03-08T02:23:44;101776.09;;;0.25;100.00
47670;BME280;33408;52.062;11.722;2024-03-08T02:26:10;101770.63;;;0.16;100.00
47670;BME280;33408;52.062;11.722;2024-03-08T02:28:37;101770.19;;;0.26;100.00
47670;BME280;33408;52.062;11.722;2024-03-08T02:31:05;101769.44;;;0.29;100.00
47670;BME280;33408;52.062;11.722;2024-03-08T02:33:33;101761.25;;;0.36;100.00
47670;BME280;33408;52.062;11.722;2024-03-08T02:36:00;101764.41;;;0.30;100.00
47670;BME280;33408;52.062;11.722;2024-03-08T02:38:28;101760.31;;;0.34;100.00
47670;BME280;33408;52.062;11.722;2024-03-08T02:40:54;101760.94;;;0.28;100.00
47670;BME280;33408;52.062;11.722;2024-03-08T02:43:22;101758.25;;;0.25;100.00
47670;BME280;33408;52.062;11.722;2024-03-08T02:45:49;101757.38;;;0.25;100.00
47670;BME280;33408;52.062;11.722;2024-03-08T02:48:18;101756.88;;;0.33;100.00
47670;BME280;33408;52.062;11.722;2024-03-08T02:50:46;101755.94;;;0.31;100.00
47670;BME280;33408;52.062;11.722;2024-03-08T02:53:13;101757.63;;;0.31;100.00
47670;BME280;33408;52.062;11.722;2024-03-08T02:55:41;101752.66;;;0.34;100.00
47670;BME280;33408;52.062;11.722;2024-03-08T02:58:08;101749.53;;;0.20;100.00
47670;BME280;33408;52.062;11.722;2024-03-08T03:00:36;101750.78;;;0.30;100.00
47670;BME280;33408;52.062;11.722;2024-03-08T03:03:04;101759.63;;;0.17;100.00
47670;BME280;33408;52.062;11.722;2024-03-08T03:05:31;101755.56;;;0.22;100.00
47670;BME280;33408;52.062;11.722;2024-03-08T03:07:59;101753.72;;;0.18;100.00
47670;BME280;33408;52.062;11.722;2024-03-08T03:10:25;101754.59;;;0.18;100.00
47670;BME280;33408;52.062;11.722;2024-03-08T03:12:53;101750.78;;;0.09;100.00
47670;BME280;33408;52.062;11.722;2024-03-08T03:15:20;101750.28;;;0.17;100.00
47670;BME280;33408;52.062;11.722;2024-03-08T03:17:48;101745.56;;;0.06;100.00
47670;BME280;33408;52.062;11.722;2024-03-08T03:20:16;101747.44;;;0.10;100.00
47670;BME280;33408;52.062;11.722;2024-03-08T03:22:49;101754.28;;;0.11;100.00
47670;BME280;33408;52.062;11.722;2024-03-08T03:25:18;101746.06;;;0.18;100.00
47670;BME280;33408;52.062;11.722;2024-03-08T03:27:51;101751.72;;;0.11;100.00
47670;BME280;33408;52.062;11.722;2024-03-08T03:30:19;101749.16;;;0.11;100.00
47670;BME280;33408;52.062;11.722;2024-03-08T03:32:49;101739.72;;;0.08;100.00
47670;BME280;33408;52.062;11.722;2024-03-08T03:35:16;101742.44;;;0.13;100.00
47670;BME280;33408;52.062;11.722;2024-03-08T03:37:43;101738.09;;;0.10;100.00
47670;BME280;33408;52.062;11.722;2024-03-08T03:40:16;101750.22;;;-0.05;100.00
47670;BME280;33408;52.062;11.722;2024-03-08T03:42:44;101750.97;;;-0.08;100.00
47670;BME280;33408;52.062;11.722;2024-03-08T03:45:12;101742.28;;;-0.13;100.00
47670;BME280;33408;52.062;11.722;2024-03-08T03:47:42;101747.03;;;-0.21;100.00
47670;BME280;33408;52.062;11.722;2024-03-08T03:50:09;101747.72;;;-0.25;100.00
47670;BME280;33408;52.062;11.722;2024-03-08T03:52:36;101739.41;;;-0.21;100.00
47670;BME280;33408;52.062;11.722;2024-03-08T03:55:03;101744.09;;;-0.30;100.00
47670;BME280;33408;52.062;11.722;2024-03-08T03:57:30;101737.81;;;-0.38;100.00
47670;BME280;33408;52.062;11.722;2024-03-08T03:59:57;101738.03;;;-0.33;100.00
47670;BME280;33408;52.062;11.722;2024-03-08T04:02:24;101739.38;;;-0.42;100.00
47670;BME280;33408;52.062;11.722;2024-03-08T04:04:53;101734.53;;;-0.55;100.00
47670;BME280;33408;52.062;11.722;2024-03-08T04:07:20;101735.75;;;-0.66;100.00
47670;BME280;33408;52.062;11.722;2024-03-08T04:09:46;101740.78;;;-0.87;100.00
47670;BME280;33408;52.062;11.722;2024-03-08T04:12:13;101740.19;;;-1.19;100.00
47670;BME280;33408;52.062;11.722;2024-03-08T04:14:42;101742.19;;;-1.32;100.00
47670;BME280;33408;52.062;11.722;2024-03-08T04:17:08;101742.47;;;-1.25;100.00
47670;BME280;33408;52.062;11.722;2024-03-08T04:19:37;101737.09;;;-1.32;100.00
47670;BME280;33408;52.062;11.722;2024-03-08T04:22:06;101740.84;;;-1.23;100.00
47670;BME280;33408;52.062;11.722;2024-03-08T04:24:33;101737.56;;;-1.21;100.00
47670;BME280;33408;52.062;11.722;2024-03-08T04:27:00;101736.78;;;-1.20;100.00
47670;BME280;33408;52.062;11.722;2024-03-08T04:29:27;101729.22;;;-1.18;100.00
47670;BME280;33408;52.062;11.722;2024-03-08T04:31:53;101737.06;;;-1.14;100.00
47670;BME280;33408;52.062;11.722;2024-03-08T04:34:20;101734.38;;;-1.17;100.00
47670;BME280;33408;52.062;11.722;2024-03-08T04:36:47;101728.50;;;-1.16;100.00
47670;BME280;33408;52.062;11.722;2024-03-08T04:39:15;101729.13;;;-1.20;100.00
47670;BME280;33408;52.062;11.722;2024-03-08T04:41:44;101723.78;;;-1.26;100.00
47670;BME280;33408;52.062;11.722;2024-03-08T04:44:11;101720.03;;;-1.15;100.00
47670;BME280;33408;52.062;11.722;2024-03-08T04:46:38;101722.50;;;-1.16;100.00
47670;BME280;33408;52.062;11.722;2024-03-08T04:49:04;101716.69;;;-1.14;100.00
47670;BME280;33408;52.062;11.722;2024-03-08T04:51:32;101714.88;;;-1.16;100.00
47670;BME280;33408;52.062;11.722;2024-03-08T04:53:59;101723.41;;;-1.16;100.00
47670;BME280;33408;52.062;11.722;2024-03-08T04:56:27;101724.31;;;-1.33;100.00
47670;BME280;33408;52.062;11.722;2024-03-08T04:58:53;101723.44;;;-1.52;100.00
47670;BME280;33408;52.062;11.722;2024-03-08T05:01:20;101723.00;;;-1.43;100.00
47670;BME280;33408;52.062;11.722;2024-03-08T05:03:47;101723.81;;;-1.44;100.00
47670;BME280;33408;52.062;11.722;2024-03-08T05:06:15;101729.56;;;-1.48;100.00
47670;BME280;33408;52.062;11.722;2024-03-08T05:08:42;101721.63;;;-1.36;100.00
47670;BME280;33408;52.062;11.722;2024-03-08T05:11:08;101718.63;;;-1.45;100.00
47670;BME280;33408;52.062;11.722;2024-03-08T05:13:36;101717.75;;;-1.28;100.00
47670;BME280;33408;52.062;11.722;2024-03-08T05:16:04;101714.03;;;-1.17;100.00
47670;BME280;33408;52.062;11.722;2024-03-08T05:18:32;101713.31;;;-0.95;100.00
47670;BME280;33408;52.062;11.722;2024-03-08T05:21:00;101710.56;;;-0.80;100.00
47670;BME280;33408;52.062;11.722;2024-03-08T05:23:29;101720.53;;;-0.65;100.00
47670;BME280;33408;52.062;11.722;2024-03-08T05:25:55;101713.19;;;-0.98;100.00
47670;BME280;33408;52.062;11.722;2024-03-08T05:28:22;101718.28;;;-0.98;100.00
47670;BME280;33408;52.062;11.722;2024-03-08T05:30:50;101716.50;;;-0.99;100.00
47670;BME280;33408;52.062;11.722;2024-03-08T05:33:16;101715.59;;;-1.01;100.00
47670;BME280;33408;52.062;11.722;2024-03-08T05:35:44;101723.31;;;-1.37;100.00
47670;BME280;33408;52.062;11.722;2024-03-08T05:38:11;101723.22;;;-1.74;100.00
47670;BME280;33408;52.062;11.722;2024-03-08T05:40:38;101718.06;;;-1.76;100.00
47670;BME280;33408;52.062;11.722;2024-03-08T05:43:05;101715.41;;;-1.61;100.00
47670;BME280;33408;52.062;11.722;2024-03-08T05:45:31;101720.19;;;-1.49;100.00
47670;BME280;33408;52.062;11.722;2024-03-08T05:48:01;101714.88;;;-1.54;100.00
47670;BME280;33408;52.062;11.722;2024-03-08T05:50:27;101720.06;;;-1.33;100.00
47670;BME280;33408;52.062;11.722;2024-03-08T05:52:54;101714.34;;;-1.29;100.00
47670;BME280;33408;52.062;11.722;2024-03-08T05:55:21;101714.19;;;-1.32;100.00
47670;BME280;33408;52.062;11.722;2024-03-08T05:57:49;101713.81;;;-1.21;100.00
47670;BME280;33408;52.062;11.722;2024-03-08T06:00:16;101711.19;;;-1.23;100.00
47670;BME280;33408;52.062;11.722;2024-03-08T06:02:44;101709.50;;;-1.22;100.00
47670;BME280;33408;52.062;11.722;2024-03-08T06:05:12;101712.06;;;-1.22;100.00
47670;BME280;33408;52.062;11.722;2024-03-08T06:07:39;101712.63;;;-1.10;100.00
47670;BME280;33408;52.062;11.722;2024-03-08T06:10:08;101712.19;;;-1.01;100.00
47670;BME280;33408;52.062;11.722;2024-03-08T06:12:37;101704.69;;;-0.98;100.00
47670;BME280;33408;52.062;11.722;2024-03-08T06:15:07;101704.28;;;-0.88;100.00
47670;BME280;33408;52.062;11.722;2024-03-08T06:17:34;101714.09;;;-0.76;100.00
47670;BME280;33408;52.062;11.722;2024-03-08T06:20:00;101716.34;;;-0.64;100.00
47670;BME280;33408;52.062;11.722;2024-03-08T06:22:29;101707.16;;;-0.61;100.00
47670;BME280;33408;52.062;11.722;2024-03-08T06:24:56;101711.53;;;-0.57;100.00
47670;BME280;33408;52.062;11.722;2024-03-08T06:27:22;101710.31;;;-0.45;100.00
47670;BME280;33408;52.062;11.722;2024-03-08T06:29:49;101709.72;;;-0.40;100.00
47670;BME280;33408;52.062;11.722;2024-03-08T06:32:15;101704.63;;;-0.40;100.00
47670;BME280;33408;52.062;11.722;2024-03-08T06:34:42;101697.06;;;-0.38;100.00
47670;BME280;33408;52.062;11.722;2024-03-08T06:37:09;101701.59;;;-0.31;100.00
47670;BME280;33408;52.062;11.722;2024-03-08T06:39:37;101709.09;;;-0.34;100.00
47670;BME280;33408;52.062;11.722;2024-03-08T06:42:03;101707.41;;;-0.14;100.00
47670;BME280;33408;52.062;11.722;2024-03-08T06:44:31;101706.63;;;-0.11;100.00
47670;BME280;33408;52.062;11.722;2024-03-08T06:46:58;101710.31;;;-0.05;100.00
47670;BME280;33408;52.062;11.722;2024-03-08T06:49:25;101708.00;;;0.02;100.00
47670;BME280;33408;52.062;11.722;2024-03-08T06:51:52;101700.25;;;0.20;100.00
47670;BME280;33408;52.062;11.722;2024-03-08T06:54:18;101703.06;;;0.27;100.00
47670;BME280;33408;52.062;11.722;2024-03-08T06:56:46;101701.41;;;0.28;100.00
47670;BME280;33408;52.062;11.722;2024-03-08T06:59:14;101694.22;;;0.40;100.00
47670;BME280;33408;52.062;11.722;2024-03-08T07:01:43;101691.53;;;0.37;100.00
47670;BME280;33408;52.062;11.722;2024-03-08T07:04:09;101691.59;;;0.39;100.00
47670;BME280;33408;52.062;11.722;2024-03-08T07:06:37;101694.41;;;0.45;100.00
47670;BME280;33408;52.062;11.722;2024-03-08T07:09:03;101692.25;;;0.56;100.00
47670;BME280;33408;52.062;11.722;2024-03-08T07:11:30;101682.53;;;0.68;100.00
47670;BME280;33408;52.062;11.722;2024-03-08T07:13:58;101686.97;;;0.73;100.00
47670;BME280;33408;52.062;11.722;2024-03-08T07:16:28;101691.34;;;0.76;100.00
47670;BME280;33408;52.062;11.722;2024-03-08T07:18:54;101692.78;;;0.92;100.00
47670;BME280;33408;52.062;11.722;2024-03-08T07:21:24;101693.03;;;1.24;100.00
47670;BME280;33408;52.062;11.722;2024-03-08T07:23:51;101686.38;;;1.27;100.00
47670;BME280;33408;52.062;11.722;2024-03-08T07:26:34;101692.78;;;1.40;100.00
47670;BME280;33408;52.062;11.722;2024-03-08T07:29:03;101694.28;;;1.35;100.00
47670;BME280;33408;52.062;11.722;2024-03-08T07:31:31;101687.72;;;1.42;100.00
47670;BME280;33408;52.062;11.722;2024-03-08T07:34:10;101683.56;;;1.45;100.00
47670;BME280;33408;52.062;11.722;2024-03-08T07:36:37;101682.38;;;1.60;100.00
47670;BME280;33408;52.062;11.722;2024-03-08T07:39:04;101678.31;;;1.67;100.00
47670;BME280;33408;52.062;11.722;2024-03-08T07:41:36;101671.53;;;1.94;100.00
47670;BME280;33408;52.062;11.722;2024-03-08T07:44:06;101670.88;;;2.00;100.00
47670;BME280;33408;52.062;11.722;2024-03-08T07:46:33;101660.84;;;2.06;100.00
47670;BME280;33408;52.062;11.722;2024-03-08T07:49:00;101664.69;;;2.21;100.00
47670;BME280;33408;52.062;11.722;2024-03-08T07:51:27;101657.19;;;2.27;100.00
47670;BME280;33408;52.062;11.722;2024-03-08T07:53:53;101658.38;;;2.38;100.00
47670;BME280;33408;52.062;11.722;2024-03-08T07:56:20;101652.75;;;2.48;100.00
47670;BME280;33408;52.062;11.722;2024-03-08T07:58:47;101654.78;;;2.60;100.00
47670;BME280;33408;52.062;11.722;2024-03-08T08:01:17;101649.97;;;2.71;100.00
47670;BME280;33408;52.062;11.722;2024-03-08T08:03:44;101654.31;;;2.73;100.00
47670;BME280;33408;52.062;11.722;2024-03-08T08:06:11;101652.69;;;2.76;100.00
47670;BME280;33408;52.062;11.722;2024-03-08T08:08:41;101651.47;;;2.95;100.00
47670;BME280;33408;52.062;11.722;2024-03-08T08:11:07;101656.50;;;2.90;100.00
47670;BME280;33408;52.062;11.722;2024-03-08T08:13:35;101642.16;;;2.97;100.00
47670;BME280;33408;52.062;11.722;2024-03-08T08:16:02;101642.38;;;3.04;100.00
47670;BME280;33408;52.062;11.722;2024-03-08T08:18:30;101651.47;;;2.95;100.00
47670;BME280;33408;52.062;11.722;2024-03-08T08:20:58;101638.06;;;3.03;100.00
47670;BME280;33408;52.062;11.722;2024-03-08T08:23:25;101639.19;;;3.13;100.00
47670;BME280;33408;52.062;11.722;2024-03-08T08:25:52;101634.44;;;2.95;100.00
47670;BME280;33408;52.062;11.722;2024-03-08T08:28:18;101636.56;;;3.12;100.00
47670;BME280;33408;52.062;11.722;2024-03-08T08:30:46;101629.22;;;3.24;100.00
47670;BME280;33408;52.062;11.722;2024-03-08T08:33:14;101634.50;;;3.30;100.00
47670;BME280;33408;52.062;11.722;2024-03-08T08:35:42;101625.41;;;3.43;100.00
47670;BME280;33408;52.062;11.722;2024-03-08T08:38:08;101624.50;;;3.41;100.00
47670;BME280;33408;52.062;11.722;2024-03-08T08:40:35;101629.84;;;3.49;100.00
47670;BME280;33408;52.062;11.722;2024-03-08T08:43:02;101611.16;;;3.53;100.00
47670;BME280;33408;52.062;11.722;2024-03-08T08:45:30;101607.25;;;3.69;100.00
47670;BME280;33408;52.062;11.722;2024-03-08T08:47:59;101605.69;;;3.74;100.00
47670;BME280;33408;52.062;11.722;2024-03-08T08:50:26;101597.66;;;3.96;100.00
47670;BME280;33408;52.062;11.722;2024-03-08T08:52:55;101600.69;;;4.18;100.00
47670;BME280;33408;52.062;11.722;2024-03-08T08:55:22;101595.59;;;4.19;100.00
47670;BME280;33408;52.062;11.722;2024-03-08T08:57:50;101597.66;;;4.37;100.00
47670;BME280;33408;52.062;11.722;2024-03-08T09:00:19;101595.09;;;4.37;100.00
47670;BME280;33408;52.062;11.722;2024-03-08T09:02:47;101598.84;;;4.53;100.00
47670;BME280;33408;52.062;11.722;2024-03-08T09:05:13;101598.09;;;4.57;100.00
47670;BME280;33408;52.062;11.722;2024-03-08T09:07:42;101597.59;;;4.75;100.00
47670;BME280;33408;52.062;11.722;2024-03-08T09:10:13;101589.28;;;4.90;100.00
47670;BME280;33408;52.062;11.722;2024-03-08T09:12:39;101580.72;;;4.88;100.00
47670;BME280;33408;52.062;11.722;2024-03-08T09:15:07;101587.66;;;4.94;100.00
47670;BME280;33408;52.062;11.722;2024-03-08T09:17:36;101578.91;;;4.84;100.00
47670;BME280;33408;52.062;11.722;2024-03-08T09:20:07;101575.66;;;4.93;100.00
47670;BME280;33408;52.062;11.722;2024-03-08T09:22:34;101579.16;;;4.98;100.00
47670;BME280;33408;52.062;11.722;2024-03-08T09:25:01;101574.19;;;5.06;100.00
47670;BME280;33408;52.062;11.722;2024-03-08T09:27:29;101567.38;;;5.09;100.00
47670;BME280;33408;52.062;11.722;2024-03-08T09:30:02;101566.47;;;5.06;100.00
47670;BME280;33408;52.062;11.722;2024-03-08T09:32:29;101559.00;;;5.21;100.00
47670;BME280;33408;52.062;11.722;2024-03-08T09:35:01;101553.03;;;5.22;100.00
47670;BME280;33408;52.062;11.722;2024-03-08T09:37:28;101551.44;;;5.29;100.00
47670;BME280;33408;52.062;11.722;2024-03-08T09:40:00;101542.81;;;5.25;100.00
47670;BME280;33408;52.062;11.722;2024-03-08T09:42:31;101546.41;;;5.37;100.00
47670;BME280;33408;52.062;11.722;2024-03-08T09:44:58;101551.69;;;5.44;100.00
47670;BME280;33408;52.062;11.722;2024-03-08T09:47:25;101540.53;;;5.45;100.00
47670;BME280;33408;52.062;11.722;2024-03-08T09:50:00;101534.75;;;5.59;100.00
47670;BME280;33408;52.062;11.722;2024-03-08T09:52:27;101527.91;;;5.59;100.00
47670;BME280;33408;52.062;11.722;2024-03-08T09:55:01;101534.72;;;5.56;100.00
47670;BME280;33408;52.062;11.722;2024-03-08T09:57:27;101534.75;;;5.59;100.00
47670;BME280;33408;52.062;11.722;2024-03-08T10:00:12;101525.50;;;5.70;100.00
47670;BME280;33408;52.062;11.722;2024-03-08T10:02:50;101530.69;;;5.76;100.00
47670;BME280;33408;52.062;11.722;2024-03-08T10:05:18;101522.25;;;5.83;100.00
47670;BME280;33408;52.062;11.722;2024-03-08T10:07:44;101531.81;;;5.94;100.00
47670;BME280;33408;52.062;11.722;2024-03-08T10:10:11;101522.31;;;5.88;100.00
47670;BME280;33408;52.062;11.722;2024-03-08T10:12:38;101514.75;;;6.00;100.00
47670;BME280;33408;52.062;11.722;2024-03-08T10:15:12;101510.53;;;6.02;100.00
47670;BME280;33408;52.062;11.722;2024-03-08T10:17:41;101504.78;;;6.24;100.00
47670;BME280;33408;52.062;11.722;2024-03-08T10:20:13;101497.19;;;6.34;100.00
47670;BME280;33408;52.062;11.722;2024-03-08T10:22:41;101498.84;;;6.32;100.00
47670;BME280;33408;52.062;11.722;2024-03-08T10:25:09;101493.78;;;6.40;100.00
47670;BME280;33408;52.062;11.722;2024-03-08T10:27:38;101495.56;;;6.43;100.00
47670;BME280;33408;52.062;11.722;2024-03-08T10:30:06;101497.38;;;6.54;100.00
47670;BME280;33408;52.062;11.722;2024-03-08T10:32:39;101489.56;;;6.45;100.00
47670;BME280;33408;52.062;11.722;2024-03-08T10:35:07;101493.03;;;6.50;100.00
47670;BME280;33408;52.062;11.722;2024-03-08T10:37:40;101480.16;;;6.52;100.00
47670;BME280;33408;52.062;11.722;2024-03-08T10:40:15;101488.75;;;6.51;100.00
47670;BME280;33408;52.062;11.722;2024-03-08T10:42:51;101482.06;;;6.67;100.00
47670;BME280;33408;52.062;11.722;2024-03-08T10:45:26;101486.19;;;6.51;100.00
47670;BME280;33408;52.062;11.722;2024-03-08T10:48:15;101475.09;;;6.58;100.00
47670;BME280;33408;52.062;11.722;2024-03-08T10:50:47;101484.53;;;6.56;100.00
47670;BME280;33408;52.062;11.722;2024-03-08T10:53:17;101461.44;;;6.67;100.00
47670;BME280;33408;52.062;11.722;2024-03-08T10:55:49;101457.13;;;6.66;100.00
47670;BME280;33408;52.062;11.722;2024-03-08T10:58:21;101459.88;;;6.83;100.00
47670;BME280;33408;52.062;11.722;2024-03-08T11:00:49;101461.66;;;6.93;100.00
47670;BME280;33408;52.062;11.722;2024-03-08T11:03:50;101453.00;;;6.83;100.00
47670;BME280;33408;52.062;11.722;2024-03-08T11:06:22;101453.88;;;6.85;100.00
47670;BME280;33408;52.062;11.722;2024-03-08T11:08:49;101445.44;;;7.08;100.00
47670;BME280;33408;52.062;11.722;2024-03-08T11:11:27;101446.25;;;6.98;100.00
47670;BME280;33408;52.062;11.722;2024-03-08T11:13:58;101442.91;;;7.11;100.00
47670;BME280;33408;52.062;11.722;2024-03-08T11:16:38;101441.09;;;6.98;100.00
47670;BME280;33408;52.062;11.722;2024-03-08T11:22:02;101436.81;;;7.00;100.00
47670;BME280;33408;52.062;11.722;2024-03-08T11:24:39;101420.56;;;7.08;100.00
47670;BME280;33408;52.062;11.722;2024-03-08T11:27:07;101424.00;;;7.12;100.00
47670;BME280;33408;52.062;11.722;2024-03-08T11:29:37;101423.16;;;7.15;100.00
47670;BME280;33408;52.062;11.722;2024-03-08T11:32:07;101414.63;;;7.22;100.00
47670;BME280;33408;52.062;11.722;2024-03-08T11:34:34;101409.53;;;7.33;100.00
47670;BME280;33408;52.062;11.722;2024-03-08T11:37:03;101413.84;;;7.40;100.00
47670;BME280;33408;52.062;11.722;2024-03-08T11:39:30;101412.97;;;7.33;99.89
47670;BME280;33408;52.062;11.722;2024-03-08T11:41:58;101410.41;;;7.38;100.00
47670;BME280;33408;52.062;11.722;2024-03-08T11:44:26;101407.00;;;7.42;99.77
47670;BME280;33408;52.062;11.722;2024-03-08T11:46:59;101401.94;;;7.60;100.00
47670;BME280;33408;52.062;11.722;2024-03-08T11:49:26;101393.41;;;7.80;100.00
47670;BME280;33408;52.062;11.722;2024-03-08T11:52:13;101391.66;;;7.79;99.41
47670;BME280;33408;52.062;11.722;2024-03-08T11:54:41;101382.25;;;7.81;99.13
47670;BME280;33408;52.062;11.722;2024-03-08T11:57:07;101383.06;;;7.77;98.93
47670;BME280;33408;52.062;11.722;2024-03-08T11:59:35;101381.34;;;7.76;98.27
47670;BME280;33408;52.062;11.722;2024-03-08T12:02:03;101374.47;;;7.73;96.99
47670;BME280;33408;52.062;11.722;2024-03-08T12:04:31;101371.00;;;7.68;96.32
47670;BME280;33408;52.062;11.722;2024-03-08T12:06:59;101366.66;;;7.59;95.51
47670;BME280;33408;52.062;11.722;2024-03-08T12:09:28;101366.69;;;7.67;95.34
47670;BME280;33408;52.062;11.722;2024-03-08T12:12:26;101360.69;;;7.77;95.76
47670;BME280;33408;52.062;11.722;2024-03-08T12:14:59;101362.47;;;8.00;96.27
47670;BME280;33408;52.062;11.722;2024-03-08T12:17:25;101347.88;;;8.07;97.62
47670;BME280;33408;52.062;11.722;2024-03-08T12:19:52;101349.56;;;7.94;95.49
47670;BME280;33408;52.062;11.722;2024-03-08T12:22:33;101347.84;;;7.97;95.39
47670;BME280;33408;52.062;11.722;2024-03-08T12:25:14;101338.38;;;7.98;95.49
47670;BME280;33408;52.062;11.722;2024-03-08T12:27:43;101335.81;;;8.07;96.92
47670;BME280;33408;52.062;11.722;2024-03-08T12:30:19;101322.03;;;7.99;96.15
47670;BME280;33408;52.062;11.722;2024-03-08T12:32:53;101326.31;;;7.88;95.13
47670;BME280;33408;52.062;11.722;2024-03-08T12:35:30;101314.28;;;7.88;94.61
47670;BME280;33408;52.062;11.722;2024-03-08T12:38:10;101310.84;;;7.98;94.91
47670;BME280;33408;52.062;11.722;2024-03-08T12:40:40;101313.44;;;8.12;94.73
47670;BME280;33408;52.062;11.722;2024-03-08T12:43:07;101310.00;;;8.26;95.44
47670;BME280;33408;52.062;11.722;2024-03-08T12:45:34;101310.03;;;8.13;94.45
47670;BME280;33408;52.062;11.722;2024-03-08T12:48:01;101299.69;;;8.09;93.78